Recent Observations

This page presents the weather data from the last 72 hours at 30 minute intervals.

Last updated at 3:50:26 am AEST on Fri 23 February 2024.

Last 24 hours
Date/Time(AEST) Temp. ( °C) Dew Point ( °C) Relative Humidity (%) Apparent Temp. ( °C) Wind Direction Wind Speed (kph) Wind Gust (kph) Wind Speed (kts) Wind Gust (kts) MSL Pressure (hPa) Rain since midnight (mm)
23/02 3:50 am 21.9 21.2 96 26.1 WSW 1 4 1 2 1011.8 0.0
23/02 3:20 am 22.1 21.3 96 26.5 WSW 0 2 0 1 1011.7 0.0
23/02 2:50 am 22.2 21.4 95 26.6 CALM 0 0 0 0 1011.8 0.0
23/02 2:20 am 22.3 21.4 95 26.7 WSW 0 2 0 1 1012.1 0.0
23/02 1:50 am 22.6 21.6 94 27.1 CALM 0 0 0 0 1012.2 0.0
23/02 1:20 am 22.8 21.7 94 27.4 CALM 0 0 0 0 1012.2 0.0
23/02 12:50 am 23.1 21.9 93 27.7 CALM 0 0 0 0 1012.2 0.0
23/02 12:20 am 23.3 22.1 92 28 CALM 0 0 0 0 1012.6 0.0
22/02 11:50 pm 23.6 22.1 91 28.3 CALM 0 0 0 0 1012.9 0.0
22/02 11:20 pm 23.9 22.3 91 28.8 CALM 0 0 0 0 1013.1 0.0
22/02 10:50 pm 24.2 22.4 90 29.1 CALM 0 0 0 0 1013.2 0.0
22/02 10:20 pm 24.6 22.6 89 29.7 CALM 0 0 0 0 1013.6 0.0
22/02 9:50 pm 24.9 22.7 87 29.9 CALM 0 0 0 0 1013.7 0.0
22/02 9:20 pm 25.3 22.8 86 30.4 CALM 0 0 0 0 1014.0 0.0
22/02 8:50 pm 25.7 22.9 85 30.9 NW 0 0 0 0 1013.8 0.0
22/02 8:20 pm 26.0 22.9 83 29.8 NW 2 6 1 3 1013.7 0.0
22/02 7:50 pm 26.3 22.7 81 30.7 NNW 1 6 1 3 1013.5 0.0
22/02 7:20 pm 26.6 22.9 80 29 CALM 4 12 2 6 1013.1 0.0
22/02 6:50 pm 27.2 23.2 79 29.8 NNE 4 14 2 8 1012.9 0.0
22/02 6:20 pm 27.9 23.7 78 30.7 N 4 8 2 4 1012.4 0.0
22/02 5:50 pm 28.7 23.7 74 30.8 N 5 14 3 8 1012.4 0.0
22/02 5:20 pm 30.0 23.2 67 29.7 N 8 15 4 8 1012.1 0.0
22/02 4:50 pm 30.9 23.7 66 33.8 N 4 15 2 8 1011.3 0.0
22/02 4:20 pm 31.5 23.8 64 34.4 NNE 4 14 2 8 1011.2 0.0
22/02 3:50 pm 31.9 24.0 63 32.1 N 8 15 4 8 1011.3 0.0
22/02 3:20 pm 32.2 23.9 62 33.1 N 7 15 4 8 1011.3 0.0
22/02 2:50 pm 32.8 23.9 60 37.2 NNW 2 10 1 5 1011.4 0.0
22/02 2:20 pm 33.9 23.3 54 37.9 NNE 2 8 1 4 1011.8 0.0
22/02 1:50 pm 32.7 22.8 56 37.1 ENE 1 8 1 4 1011.9 0.0
22/02 1:20 pm 32.3 22.4 56 35.8 SSE 2 6 1 3 1012.4 0.0
22/02 12:50 pm 32.3 23.7 60 36.4 W 2 6 1 3 1013.0 0.0
22/02 12:20 pm 31.6 23.8 64 36 CALM 2 6 1 3 1013.0 0.0
22/02 11:50 am 30.8 23.6 66 35.7 NNE 1 4 1 2 1013.4 0.0
22/02 11:20 am 30.9 23.7 66 35.2 ESE 2 8 1 4 1013.6 0.0
22/02 10:50 am 30.8 23.0 63 34.6 SW 2 6 1 3 1014.1 0.0
22/02 10:20 am 30.2 23.4 67 33.6 ENE 3 8 2 4 1014.3 0.0
22/02 9:50 am 28.9 23.1 70 33.4 NW 1 6 1 3 1014.6 0.0
22/02 9:20 am 27.3 22.9 77 31.8 ENE 1 4 1 2 1014.8 0.0
22/02 8:50 am 26.9 23.2 80 30.8 SE 2 6 1 3 1014.6 0.0
22/02 8:20 am 25.5 23.3 87 28.7 SSW 3 8 2 4 1014.5 0.0
22/02 7:50 am 24.1 23.1 94 27.3 S 3 8 2 4 1014.7 0.0
22/02 7:20 am 22.9 22.6 98 27.2 SSW 1 6 1 3 1014.8 0.0
22/02 6:50 am 21.9 21.5 98 26.4 CALM 0 0 0 0 1014.5 0.0
22/02 6:20 am 20.9 20.4 97 24.8 CALM 0 0 0 0 1014.1 0.0
22/02 5:50 am 20.7 20.2 97 24.5 CALM 0 0 0 0 1013.9 0.0
22/02 5:20 am 20.8 20.3 97 24.6 CALM 0 0 0 0 1013.5 0.0
22/02 4:50 am 20.8 20.3 96 24.6 CALM 0 0 0 0 1013.2 0.0
22/02 4:20 am 21.0 20.4 96 24.9 CALM 0 0 0 0 1013.1 0.0
24 to 48 hours ago
Date/Time(AEST) Temp. °C Dew Point °C Relative Humidity % Appararent Temp. °C Wind Direction Wind Speed (kph) Wind Gust (kph) Wind Speed (kts) Wind Gust (kts) MSL Pressure (hPa) Rain since midnight (mm)
22/02 3:50 am 21.1 20.5 96 25 CALM 0 0 0 0 1013.1 0.0
22/02 3:20 am 21.2 20.6 96 25.2 CALM 0 0 0 0 1013.0 0.0
22/02 2:50 am 21.3 20.7 96 25.3 CALM 0 0 0 0 1013.0 0.0
22/02 2:20 am 21.4 20.7 95 25.4 CALM 0 0 0 0 1012.9 0.0
22/02 1:50 am 21.8 21.0 95 26 CALM 0 0 0 0 1013.1 0.0
22/02 1:20 am 21.9 21.1 95 26.1 CALM 0 0 0 0 1013.2 0.0
22/02 12:50 am 22.1 21.2 95 26.4 CALM 0 0 0 0 1013.5 0.0
22/02 12:20 am 22.3 21.3 94 26.6 WSW 0 4 0 2 1013.9 0.0
21/02 11:50 pm 22.4 21.4 94 26.8 CALM 0 0 0 0 1014.3 0.0
21/02 11:20 pm 22.6 21.5 93 27 WSW 0 2 0 1 1014.6 0.0
21/02 10:50 pm 22.8 21.5 92 27.2 CALM 0 0 0 0 1014.8 0.0
21/02 10:20 pm 23.2 21.7 92 27.8 CALM 0 0 0 0 1014.8 0.0
21/02 9:50 pm 23.6 21.8 90 28.2 CALM 0 0 0 0 1014.8 0.0
21/02 9:20 pm 24.1 22.0 88 28.8 CALM 0 0 0 0 1014.8 0.0
21/02 8:50 pm 24.7 22.3 86 29.5 CALM 0 0 0 0 1014.4 0.0
21/02 8:20 pm 25.1 22.3 84 29.9 CALM 0 0 0 0 1014.0 0.0
21/02 7:50 pm 25.5 22.3 83 30.4 NE 0 2 0 1 1013.6 0.0
21/02 7:20 pm 25.8 22.4 82 30.8 NE 0 4 0 2 1013.2 0.0
21/02 6:50 pm 26.2 22.2 79 30.3 NE 1 10 1 5 1013.1 0.0
21/02 6:20 pm 26.7 22.4 78 29.6 NE 3 14 2 8 1012.7 0.0
21/02 5:50 pm 27.3 22.4 75 29.5 ENE 4 14 2 8 1012.6 0.0
21/02 5:20 pm 28.0 22.4 72 29.5 ENE 5 17 3 9 1012.1 0.0
21/02 4:50 pm 28.8 23.2 72 31.4 E 4 15 2 8 1011.6 0.0
21/02 4:20 pm 29.8 23.3 68 32.4 NE 4 10 2 5 1011.5 0.0
21/02 3:50 pm 30.4 22.7 63 32.6 NE 4 10 2 5 1011.4 0.0
21/02 3:20 pm 31.2 22.7 61 34.9 ENE 2 8 1 4 1011.3 0.0
21/02 2:50 pm 32.4 21.4 52 34.6 E 3 12 2 6 1011.3 0.0
21/02 2:20 pm 32.6 21.4 52 34.2 S 4 12 2 6 1011.8 0.0
21/02 1:50 pm 32.4 21.2 52 34.6 SE 3 12 2 6 1012.3 0.0
21/02 1:20 pm 32.3 22.4 56 35.1 S 3 8 2 4 1012.5 0.0
21/02 12:50 pm 31.1 21.7 57 34.2 SW 1 2 1 1 1013.1 0.0
21/02 12:20 pm 30.0 22.3 63 34.1 E 1 2 1 1 1013.1 0.0
21/02 11:50 am 30.3 22.8 64 34.7 E 1 6 1 3 1013.5 0.0
21/02 11:20 am 29.8 22.4 65 32.7 SSE 3 12 2 6 1014.1 0.0
21/02 10:50 am 29.7 22.5 66 32.7 ESE 3 8 2 4 1014.4 0.0
21/02 10:20 am 28.8 22.3 68 33 ESE 1 4 1 2 1014.6 0.0
21/02 9:50 am 28.0 21.9 70 30.6 SE 3 8 2 4 1015.1 0.0
21/02 9:20 am 26.6 22.2 77 29.3 SSE 3 8 2 4 1014.8 0.0
21/02 8:50 am 25.6 21.6 79 28 S 3 8 2 4 1015.1 0.0
21/02 8:20 am 24.4 21.3 83 25.9 S 4 6 2 3 1015.1 0.0
21/02 7:50 am 23.3 21.2 88 24.1 S 5 10 3 5 1015.1 0.0
21/02 7:20 am 21.7 21.2 97 26 S 0 2 0 1 1014.8 0.0
21/02 6:50 am 20.7 20.2 97 24.5 SSW 0 2 0 1 1014.7 0.0
21/02 6:20 am 20.1 19.6 97 23.6 CALM 0 0 0 0 1014.3 0.0
21/02 5:50 am 19.8 19.3 97 23.2 CALM 0 0 0 0 1013.9 0.0
21/02 5:20 am 19.9 19.4 97 23.3 SSW 0 4 0 2 1013.7 0.0
21/02 4:50 am 20.1 19.5 96 23.5 CALM 0 0 0 0 1013.5 0.0
21/02 4:20 am 20.2 19.6 96 23.7 CALM 0 0 0 0 1013.3 0.0
48 to 72 hours ago
Date/Time(AEST) Temp. °C Dew Point °C Relative Humidity % Appararent Temp. °C Wind Direction Wind Speed (kph) Wind Gust (kph) Wind Speed (kts) Wind Gust (kts) MSL Pressure (hPa) Rain since midnight (mm)
21/02 3:50 am 20.4 19.8 96 24 CALM 0 0 0 0 1013.3 0.0
21/02 3:20 am 20.6 19.9 96 24.3 CALM 0 0 0 0 1013.2 0.0
21/02 2:50 am 20.8 20.1 96 24.6 CALM 0 0 0 0 1013.2 0.0
21/02 2:20 am 21.0 20.2 95 24.8 CALM 0 0 0 0 1013.4 0.0
21/02 1:50 am 21.1 20.2 95 24.9 CALM 0 0 0 0 1013.7 0.0
21/02 1:20 am 21.2 20.3 94 25 CALM 0 0 0 0 1013.5 0.0
21/02 12:50 am 21.4 20.4 94 25.3 CALM 0 0 0 0 1013.8 0.0
21/02 12:20 am 21.7 20.6 93 25.6 CALM 0 0 0 0 1014.1 0.0
20/02 11:50 pm 22.0 20.8 93 26.1 CALM 0 0 0 0 1014.4 0.2
20/02 11:20 pm 22.2 20.9 92 26.3 CALM 0 0 0 0 1014.6 0.2
20/02 10:50 pm 22.6 21.0 91 26.8 CALM 0 0 0 0 1014.5 0.2
20/02 10:20 pm 22.9 21.2 90 27.2 CALM 0 0 0 0 1014.7 0.2
20/02 9:50 pm 23.4 21.3 88 27.7 CALM 0 0 0 0 1014.6 0.2
20/02 9:20 pm 23.9 21.6 87 28.4 CALM 0 0 0 0 1014.7 0.2
20/02 8:50 pm 24.2 21.4 84 28.5 CALM 0 0 0 0 1014.7 0.2
20/02 8:20 pm 24.6 21.4 82 28.9 CALM 0 0 0 0 1014.3 0.2
20/02 7:50 pm 24.8 21.4 82 29.2 ENE 0 4 0 2 1013.9 0.2
20/02 7:20 pm 24.9 21.5 81 28.6 E 1 8 1 4 1013.6 0.2
20/02 6:50 pm 25.4 21.6 79 29.1 NE 1 4 1 2 1013.2 0.2
20/02 6:20 pm 25.9 21.6 77 29.7 ESE 1 6 1 3 1013.1 0.2
20/02 5:50 pm 26.5 21.7 75 29.6 NE 2 10 1 5 1012.6 0.2
20/02 5:20 pm 26.8 22.2 76 29.5 E 3 10 2 5 1012.8 0.2
20/02 4:50 pm 27.8 22.6 73 28.6 ENE 6 17 3 9 1012.4 0.2
20/02 4:20 pm 27.8 22.4 72 30.5 E 3 10 2 5 1012.2 0.2
20/02 3:50 pm 29.2 22.7 68 30.8 E 5 17 3 9 1012.0 0.2
20/02 3:20 pm 29.5 22.8 68 31.9 ENE 4 15 2 8 1012.0 0.2
20/02 2:50 pm 29.7 22.6 66 31.3 ENE 5 12 3 6 1012.1 0.2
20/02 2:20 pm 30.5 21.3 58 34.1 E 1 6 1 3 1012.4 0.2
20/02 1:50 pm 31.5 21.4 55 33.8 SSW 3 8 2 4 1012.6 0.2
20/02 1:20 pm 31.1 21.9 58 31.5 S 6 15 3 8 1012.8 0.2
20/02 12:50 pm 29.9 22.2 63 30.4 SSE 3 14 2 8 1013.6 0.2
20/02 12:20 pm 29.7 21.7 62 32.1 SSE 3 14 2 8 1013.6 0.2
20/02 11:50 am 28.9 21.7 65 32 SSE 2 14 1 8 1013.9 0.2
20/02 11:20 am 29.1 22.3 67 31.9 SE 3 12 2 6 1014.1 0.2
20/02 10:50 am 28.6 22.1 68 29.2 S 6 12 3 6 1014.5 0.2
20/02 10:20 am 27.8 22.1 71 29.7 SSE 4 10 2 5 1014.6 0.2
20/02 9:50 am 26.8 22.1 75 27.3 S 6 14 3 8 1014.8 0.2
20/02 9:20 am 25.3 21.4 79 25.5 S 6 14 3 8 1014.8 0.2
20/02 8:50 am 24.2 21.1 83 24.2 SSW 6 15 3 8 1014.8 0.2
20/02 8:20 am 22.7 20.4 87 21 S 8 15 4 8 1014.9 0.2
20/02 7:50 am 21.5 20.4 94 21.9 S 5 15 3 8 1014.9 0.2
20/02 7:20 am 20.8 20.4 98 24 S 1 2 1 1 1014.9 0.2
20/02 6:50 am 20.2 19.9 98 23.1 SSE 1 4 1 2 1014.7 0.2
20/02 6:20 am 19.9 19.6 98 23.4 CALM 0 0 0 0 1014.3 0.2
20/02 5:50 am 19.3 19.0 98 22.5 CALM 0 0 0 0 1014.1 0.2
20/02 5:20 am 19.4 19.0 98 22.7 CALM 0 0 0 0 1013.7 0.2
20/02 4:50 am 19.6 19.2 98 23 CALM 0 0 0 0 1013.7 0.2
20/02 4:20 am 19.7 19.3 98 23.1 CALM 0 0 0 0 1013.6 0.2